createdAt,value
2023-11-08T00:00:20.180Z,10.20
2023-11-08T00:02:48.733Z,10.20
2023-11-08T00:05:21.883Z,10.20
2023-11-08T00:07:49.136Z,10.20
2023-11-08T00:10:16.443Z,10.20
2023-11-08T00:12:43.881Z,10.20
2023-11-08T00:15:11.408Z,10.20
2023-11-08T00:17:39.412Z,10.10
2023-11-08T00:20:11.776Z,10.20
2023-11-08T00:22:39.063Z,10.10
2023-11-08T00:25:06.306Z,10.10
2023-11-08T00:27:33.630Z,10.10
2023-11-08T00:30:04.716Z,10.10
2023-11-08T00:32:31.741Z,10.10
2023-11-08T00:34:59.040Z,10.10
2023-11-08T00:37:26.515Z,10.10
2023-11-08T00:39:53.553Z,10.00
2023-11-08T00:42:20.580Z,10.00
2023-11-08T00:44:47.695Z,10.00
2023-11-08T00:47:14.785Z,10.00
2023-11-08T00:49:42.648Z,10.00
2023-11-08T00:52:12.701Z,10.00
2023-11-08T00:54:40.473Z,10.00
2023-11-08T00:57:09.748Z,10.00
2023-11-08T00:59:37.399Z,10.00
2023-11-08T01:02:05.076Z,9.90
2023-11-08T01:04:32.295Z,9.90
2023-11-08T01:06:59.635Z,9.90
2023-11-08T01:09:26.796Z,9.90
2023-11-08T01:11:53.909Z,9.80
2023-11-08T01:14:21.115Z,9.80
2023-11-08T01:16:49.043Z,9.80
2023-11-08T01:19:19.408Z,9.80
2023-11-08T01:21:50.254Z,9.80
2023-11-08T01:24:17.366Z,9.80
2023-11-08T01:26:44.703Z,9.80
2023-11-08T01:29:11.860Z,9.70
2023-11-08T01:31:38.925Z,9.70
2023-11-08T01:34:06.153Z,9.70
2023-11-08T01:36:33.363Z,9.70
2023-11-08T01:39:00.913Z,9.70
2023-11-08T01:41:27.925Z,9.70
2023-11-08T01:43:55.297Z,9.60
2023-11-08T01:46:23.934Z,9.60
2023-11-08T01:48:54.681Z,9.60
2023-11-08T01:51:23.239Z,9.60
2023-11-08T01:53:51.322Z,9.60
2023-11-08T01:56:18.705Z,9.60
2023-11-08T01:58:46.994Z,9.60
2023-11-08T02:01:14.274Z,9.60
2023-11-08T02:03:43.060Z,9.60
2023-11-08T02:06:14.945Z,9.60
2023-11-08T02:08:45.077Z,9.50
2023-11-08T02:11:14.811Z,9.50
2023-11-08T02:13:42.755Z,9.50
2023-11-08T02:16:13.009Z,9.50
2023-11-08T02:18:40.302Z,9.50
2023-11-08T02:21:07.777Z,9.50
2023-11-08T02:23:34.738Z,9.50
2023-11-08T02:26:01.791Z,9.40
2023-11-08T02:28:29.465Z,9.50
2023-11-08T02:30:56.727Z,9.40
2023-11-08T02:33:27.161Z,9.50
2023-11-08T02:35:54.589Z,9.40
2023-11-08T02:38:21.730Z,9.40
2023-11-08T02:40:48.781Z,9.40
2023-11-08T02:43:15.977Z,9.50
2023-11-08T02:45:43.308Z,9.50
2023-11-08T02:48:10.486Z,9.40
2023-11-08T02:50:39.630Z,9.40
2023-11-08T02:53:07.283Z,9.50
2023-11-08T02:55:35.596Z,9.50
2023-11-08T02:58:02.693Z,9.50
2023-11-08T03:00:29.827Z,9.50
2023-11-08T03:02:57.023Z,9.50
2023-11-08T03:05:24.426Z,9.40
2023-11-08T03:07:52.717Z,9.50
2023-11-08T03:10:20.908Z,9.50
2023-11-08T03:12:49.668Z,9.50
2023-11-08T03:15:18.307Z,9.40
2023-11-08T03:17:45.930Z,9.50
2023-11-08T03:20:13.725Z,9.40
2023-11-08T03:22:40.756Z,9.40
2023-11-08T03:25:08.642Z,9.50
2023-11-08T03:27:35.762Z,9.40
2023-11-08T03:30:02.822Z,9.40
2023-11-08T03:32:29.893Z,9.40
2023-11-08T03:34:56.942Z,9.40
2023-11-08T03:37:24.969Z,9.40
2023-11-08T03:39:52.764Z,9.40
2023-11-08T03:42:20.418Z,9.40
2023-11-08T03:44:47.660Z,9.40
2023-11-08T03:47:14.702Z,9.40
2023-11-08T03:49:41.740Z,9.30
2023-11-08T03:52:11.759Z,9.40
2023-11-08T03:54:38.995Z,9.40
2023-11-08T03:57:06.159Z,9.40
2023-11-08T03:59:33.201Z,9.40
2023-11-08T04:02:00.265Z,9.40
2023-11-08T04:04:27.371Z,9.40
2023-11-08T04:06:55.141Z,9.40
2023-11-08T04:09:22.425Z,9.40
2023-11-08T04:11:49.659Z,9.40
2023-11-08T04:14:16.706Z,9.40
2023-11-08T04:16:43.817Z,9.40
2023-11-08T04:19:10.865Z,9.40
2023-11-08T04:21:40.982Z,9.30
2023-11-08T04:24:08.695Z,9.30
2023-11-08T04:26:36.281Z,9.30
2023-11-08T04:29:08.341Z,9.30
2023-11-08T04:31:35.561Z,9.30
2023-11-08T04:34:03.156Z,9.30
2023-11-08T04:36:30.364Z,9.30
2023-11-08T04:39:00.031Z,9.30
2023-11-08T04:41:27.441Z,9.30
2023-11-08T04:43:54.686Z,9.30
2023-11-08T04:46:21.760Z,9.30
2023-11-08T04:48:49.383Z,9.30
2023-11-08T04:51:17.216Z,9.40
2023-11-08T04:53:44.310Z,9.30
2023-11-08T04:56:14.161Z,9.40
2023-11-08T04:58:41.319Z,9.40
2023-11-08T05:01:08.644Z,9.40
2023-11-08T05:03:35.747Z,9.40
2023-11-08T05:06:02.854Z,9.40
2023-11-08T05:08:30.633Z,9.40
2023-11-08T05:10:57.938Z,9.40
2023-11-08T05:13:25.699Z,9.50
2023-11-08T05:15:53.119Z,9.40
2023-11-08T05:18:20.253Z,9.50
2023-11-08T05:20:47.354Z,9.50
2023-11-08T05:23:15.733Z,9.50
2023-11-08T05:25:43.050Z,9.50
2023-11-08T05:28:10.266Z,9.50
2023-11-08T05:30:37.346Z,9.50
2023-11-08T05:33:06.986Z,9.50
2023-11-08T05:35:34.148Z,9.50
2023-11-08T05:38:01.929Z,9.50
2023-11-08T05:40:33.779Z,9.60
2023-11-08T05:43:00.858Z,9.50
2023-11-08T05:45:27.994Z,9.60
2023-11-08T05:47:55.489Z,9.60
2023-11-08T05:50:27.406Z,9.60
2023-11-08T05:52:55.612Z,9.60
2023-11-08T05:55:22.633Z,9.60
2023-11-08T05:57:50.308Z,9.60
2023-11-08T06:00:22.735Z,9.60
2023-11-08T06:02:50.795Z,9.60
2023-11-08T06:05:21.192Z,9.70
2023-11-08T06:07:48.807Z,9.70
2023-11-08T06:10:16.137Z,9.60
2023-11-08T06:12:43.317Z,9.70
2023-11-08T06:15:11.084Z,9.70
2023-11-08T06:17:41.594Z,9.70
2023-11-08T06:20:12.971Z,9.70
2023-11-08T06:22:40.212Z,9.60
2023-11-08T06:25:07.439Z,9.60
2023-11-08T06:27:35.053Z,9.60
2023-11-08T06:30:02.407Z,9.60
2023-11-08T06:32:29.840Z,9.60
2023-11-08T06:35:02.153Z,9.60
2023-11-08T06:37:29.634Z,9.60
2023-11-08T06:39:57.119Z,9.60
2023-11-08T06:42:24.197Z,9.60
2023-11-08T06:44:51.431Z,9.60
2023-11-08T06:47:21.534Z,9.60
2023-11-08T06:49:49.189Z,9.60
2023-11-08T06:52:16.249Z,9.60
2023-11-08T06:54:43.762Z,9.60
2023-11-08T06:57:13.707Z,9.60
2023-11-08T06:59:41.002Z,9.60
2023-11-08T07:02:08.323Z,9.70
2023-11-08T07:04:35.797Z,9.70
2023-11-08T07:07:03.571Z,9.70
2023-11-08T07:09:31.125Z,9.70
2023-11-08T07:11:59.071Z,9.70
2023-11-08T07:14:26.015Z,9.70
2023-11-08T07:16:53.173Z,9.70
2023-11-08T07:19:20.356Z,9.70
2023-11-08T07:21:48.165Z,9.70
2023-11-08T07:24:15.316Z,9.70
2023-11-08T07:26:42.982Z,9.70
2023-11-08T07:29:10.053Z,9.70
2023-11-08T07:31:37.817Z,9.70
2023-11-08T07:34:06.872Z,9.70
2023-11-08T07:36:35.572Z,9.80
2023-11-08T07:39:03.411Z,9.80
2023-11-08T07:41:34.711Z,9.80
2023-11-08T07:44:04.351Z,9.80
2023-11-08T07:46:32.171Z,9.80
2023-11-08T07:48:59.658Z,9.80
2023-11-08T07:51:30.036Z,9.80
2023-11-08T07:53:58.235Z,9.80
2023-11-08T07:56:25.529Z,9.80
2023-11-08T07:58:54.400Z,9.80
2023-11-08T08:01:22.279Z,9.90
2023-11-08T08:03:50.213Z,9.90
2023-11-08T08:06:17.555Z,10.00
2023-11-08T08:08:45.165Z,10.00
2023-11-08T08:11:16.145Z,10.00
2023-11-08T08:13:43.524Z,10.10
2023-11-08T08:16:11.146Z,10.20
2023-11-08T08:18:38.717Z,10.20
2023-11-08T08:21:05.937Z,10.20
2023-11-08T08:23:33.533Z,10.30
2023-11-08T08:26:01.702Z,10.30
2023-11-08T08:28:30.190Z,10.30
2023-11-08T08:30:57.458Z,10.30
2023-11-08T08:33:25.050Z,10.30
2023-11-08T08:35:52.420Z,10.30
2023-11-08T08:38:21.219Z,10.30
2023-11-08T08:40:50.841Z,10.30
2023-11-08T08:43:20.334Z,10.30
2023-11-08T08:45:48.690Z,10.30
2023-11-08T08:48:16.751Z,10.30
2023-11-08T08:50:43.919Z,10.40
2023-11-08T08:53:11.092Z,10.40
2023-11-08T08:55:40.459Z,10.50
2023-11-08T08:58:07.762Z,10.50
2023-11-08T09:00:36.826Z,10.50
2023-11-08T09:03:07.353Z,10.60
2023-11-08T09:05:34.961Z,10.60
2023-11-08T09:08:03.857Z,10.70
2023-11-08T09:10:31.287Z,10.60
2023-11-08T09:12:58.855Z,10.70
2023-11-08T09:15:26.186Z,10.80
2023-11-08T09:17:53.252Z,10.80
2023-11-08T09:20:20.475Z,10.90
2023-11-08T09:22:47.835Z,11.00
2023-11-08T09:25:16.505Z,11.00
2023-11-08T09:27:44.215Z,11.00
2023-11-08T09:30:11.422Z,11.00
2023-11-08T09:32:39.042Z,11.10
2023-11-08T09:35:09.325Z,11.10
2023-11-08T09:37:37.836Z,11.20
2023-11-08T09:40:11.241Z,11.30
2023-11-08T09:42:39.293Z,11.30
2023-11-08T09:45:07.843Z,11.40
2023-11-08T09:47:35.650Z,11.60
2023-11-08T09:50:02.989Z,11.60
2023-11-08T09:52:35.532Z,11.60
2023-11-08T09:55:02.634Z,11.60
2023-11-08T09:57:30.360Z,11.70
2023-11-08T09:59:58.742Z,11.70
2023-11-08T10:02:28.358Z,11.80
2023-11-08T10:04:56.259Z,11.90
2023-11-08T10:07:23.479Z,12.00
2023-11-08T10:09:50.826Z,12.10
2023-11-08T10:12:21.559Z,12.20
2023-11-08T10:14:56.948Z,12.30
2023-11-08T10:19:29.655Z,12.30
2023-11-08T10:20:23.072Z,12.40
2023-11-08T10:22:50.984Z,12.40
2023-11-08T10:25:19.851Z,12.40
2023-11-08T10:28:01.416Z,12.40
2023-11-08T10:30:33.247Z,12.50
2023-11-08T10:33:09.876Z,12.50
2023-11-08T10:35:41.032Z,12.60
2023-11-08T10:38:08.543Z,12.70
2023-11-08T10:40:35.646Z,12.70
2023-11-08T10:43:05.763Z,12.70
2023-11-08T10:45:34.732Z,12.70
2023-11-08T10:48:02.200Z,12.70
2023-11-08T10:50:29.887Z,12.80
2023-11-08T10:52:58.775Z,12.80
2023-11-08T10:55:27.397Z,12.80
2023-11-08T10:57:59.648Z,12.80
2023-11-08T11:00:27.440Z,12.80
2023-11-08T11:02:56.103Z,12.90
2023-11-08T11:05:24.732Z,12.90
2023-11-08T11:07:54.700Z,13.00
2023-11-08T11:10:21.807Z,13.10
2023-11-08T11:12:48.984Z,13.00
2023-11-08T11:15:20.387Z,13.10
2023-11-08T11:17:51.219Z,13.10
2023-11-08T11:20:19.620Z,13.10
2023-11-08T11:22:46.665Z,13.20
2023-11-08T11:25:33.591Z,13.20
2023-11-08T11:28:00.687Z,13.30
2023-11-08T11:30:28.846Z,13.30
2023-11-08T11:32:58.833Z,13.30
2023-11-08T11:35:32.031Z,13.30
2023-11-08T11:38:25.385Z,13.30
2023-11-08T11:41:11.152Z,13.40
2023-11-08T11:43:39.907Z,13.30
2023-11-08T11:46:07.214Z,13.30
2023-11-08T11:48:34.716Z,13.30
2023-11-08T11:51:03.144Z,13.30
2023-11-08T11:53:31.713Z,13.30
2023-11-08T11:56:08.843Z,13.30
2023-11-08T11:58:37.215Z,13.30
2023-11-08T12:01:07.850Z,13.30
2023-11-08T12:03:35.536Z,13.30
2023-11-08T12:06:02.848Z,13.30
2023-11-08T12:08:30.075Z,13.30
2023-11-08T12:11:16.726Z,13.30
2023-11-08T12:13:54.281Z,13.30
2023-11-08T12:16:22.097Z,13.30
2023-11-08T12:18:50.944Z,13.30
2023-11-08T12:21:18.907Z,13.20
2023-11-08T12:23:49.718Z,13.20
2023-11-08T12:26:17.196Z,13.20
2023-11-08T12:28:45.496Z,13.20
2023-11-08T12:31:13.126Z,13.10
2023-11-08T12:33:40.460Z,13.10
2023-11-08T12:36:10.964Z,13.10
2023-11-08T12:38:40.623Z,13.10
2023-11-08T12:41:08.993Z,13.20
2023-11-08T12:43:58.756Z,13.10
2023-11-08T12:46:37.645Z,13.20
2023-11-08T12:49:14.443Z,13.20
2023-11-08T12:51:41.815Z,13.20
2023-11-08T12:54:20.063Z,13.20
2023-11-08T12:56:48.128Z,13.20
2023-11-08T12:59:17.346Z,13.10
2023-11-08T13:01:45.468Z,13.10
2023-11-08T13:04:13.825Z,13.10
2023-11-08T13:06:41.021Z,13.10
2023-11-08T13:09:08.364Z,13.00
2023-11-08T13:11:35.516Z,13.00
2023-11-08T13:14:08.812Z,12.90
2023-11-08T13:16:35.844Z,12.80
2023-11-08T13:19:02.990Z,12.80
2023-11-08T13:21:30.267Z,12.80
2023-11-08T13:24:03.264Z,12.70
2023-11-08T13:26:34.999Z,12.70
2023-11-08T13:29:02.577Z,12.70
2023-11-08T13:31:29.964Z,12.70
2023-11-08T13:33:57.211Z,12.60
2023-11-08T13:36:29.020Z,12.60
2023-11-08T13:38:57.065Z,12.50
2023-11-08T13:41:24.668Z,12.40
2023-11-08T13:43:51.931Z,12.40
2023-11-08T13:46:18.954Z,12.40
2023-11-08T13:48:46.077Z,12.40
2023-11-08T13:51:13.246Z,12.30
2023-11-08T13:53:40.406Z,12.30
2023-11-08T13:56:10.594Z,12.30
2023-11-08T13:58:37.852Z,12.30
2023-11-08T14:01:11.560Z,12.30
2023-11-08T14:03:39.648Z,12.40
2023-11-08T14:06:08.253Z,12.30
2023-11-08T14:08:35.856Z,12.30
2023-11-08T14:11:03.131Z,12.30
2023-11-08T14:13:30.897Z,12.30
2023-11-08T14:15:58.592Z,12.30
2023-11-08T14:18:25.707Z,12.30
2023-11-08T14:20:54.723Z,12.40
2023-11-08T14:23:24.888Z,12.40
2023-11-08T14:25:52.635Z,12.40
2023-11-08T14:28:20.624Z,12.40
2023-11-08T14:30:51.886Z,12.40
2023-11-08T14:33:19.161Z,12.40
2023-11-08T14:35:46.308Z,12.40
2023-11-08T14:38:13.792Z,12.30
2023-11-08T14:40:42.168Z,12.30
2023-11-08T14:43:10.056Z,12.30
2023-11-08T14:45:37.718Z,12.30
2023-11-08T14:48:05.563Z,12.30
2023-11-08T14:50:32.781Z,12.30
2023-11-08T14:52:59.939Z,12.20
2023-11-08T14:55:27.009Z,12.20
2023-11-08T14:57:54.062Z,12.20
2023-11-08T15:00:21.367Z,12.20
2023-11-08T15:02:48.558Z,12.20
2023-11-08T15:05:15.686Z,12.10
2023-11-08T15:09:43.231Z,12.10
2023-11-08T15:10:30.350Z,12.10
2023-11-08T15:12:58.628Z,12.10
2023-11-08T15:15:26.503Z,12.10
2023-11-08T15:17:53.855Z,12.10
2023-11-08T15:20:22.799Z,12.10
2023-11-08T15:22:58.167Z,12.10
2023-11-08T15:25:25.604Z,12.00
2023-11-08T15:27:54.355Z,12.00
2023-11-08T15:30:21.605Z,12.00
2023-11-08T15:32:48.776Z,12.00
2023-11-08T15:35:16.030Z,12.00
2023-11-08T15:37:43.143Z,11.90
2023-11-08T15:40:11.119Z,11.90
2023-11-08T15:42:38.397Z,11.90
2023-11-08T15:45:05.931Z,11.90
2023-11-08T15:47:33.108Z,11.90
2023-11-08T15:50:00.337Z,11.90
2023-11-08T15:52:27.515Z,11.90
2023-11-08T15:54:54.805Z,11.90
2023-11-08T15:57:23.209Z,11.90
2023-11-08T15:59:50.240Z,11.80
2023-11-08T16:02:18.184Z,11.80
2023-11-08T16:04:48.591Z,11.80
2023-11-08T16:07:16.748Z,11.80
2023-11-08T16:09:44.123Z,11.80
2023-11-08T16:12:11.188Z,11.80
2023-11-08T16:14:38.335Z,11.80
2023-11-08T16:17:06.001Z,11.80
2023-11-08T16:19:33.194Z,11.80
2023-11-08T16:22:00.344Z,11.80
2023-11-08T16:24:27.670Z,11.80
2023-11-08T16:26:54.914Z,11.80
2023-11-08T16:29:50.288Z,11.80
2023-11-08T16:32:34.418Z,11.80
2023-11-08T16:34:58.557Z,11.80
2023-11-08T16:37:25.755Z,11.80
2023-11-08T16:39:52.964Z,11.80
2023-11-08T16:42:20.407Z,11.80
2023-11-08T16:44:47.431Z,11.80
2023-11-08T16:47:14.632Z,11.80
2023-11-08T16:49:42.161Z,11.80
2023-11-08T16:52:09.242Z,11.80
2023-11-08T16:54:36.336Z,11.80
2023-11-08T16:57:03.598Z,11.80
2023-11-08T16:59:30.750Z,11.80
2023-11-08T17:01:57.882Z,11.70
2023-11-08T17:04:25.055Z,11.80
2023-11-08T17:06:52.334Z,11.80
2023-11-08T17:09:19.558Z,11.80
2023-11-08T17:11:46.701Z,11.80
2023-11-08T17:14:13.950Z,11.80
2023-11-08T17:16:41.000Z,11.80
2023-11-08T17:19:08.111Z,11.80
2023-11-08T17:21:35.779Z,11.80
2023-11-08T17:24:03.005Z,11.80
2023-11-08T17:26:30.024Z,11.80
2023-11-08T17:28:57.141Z,11.80
2023-11-08T17:31:24.324Z,11.80
2023-11-08T17:33:51.372Z,11.80
2023-11-08T17:36:18.621Z,11.80
2023-11-08T17:38:47.485Z,11.80
2023-11-08T17:41:17.093Z,11.80
2023-11-08T17:43:44.194Z,11.80
2023-11-08T17:46:15.025Z,11.80
2023-11-08T17:48:42.295Z,11.80
2023-11-08T17:51:12.040Z,11.80
2023-11-08T17:53:39.138Z,11.80
2023-11-08T17:56:07.166Z,11.80
2023-11-08T17:58:34.833Z,11.80
2023-11-08T18:01:01.905Z,11.80
2023-11-08T18:03:29.069Z,11.80
2023-11-08T18:05:59.019Z,11.90
2023-11-08T18:08:26.215Z,11.90
2023-11-08T18:10:53.579Z,11.90
2023-11-08T18:13:20.913Z,11.90
2023-11-08T18:15:49.012Z,11.90
2023-11-08T18:18:16.730Z,11.90
2023-11-08T18:20:45.345Z,11.90
2023-11-08T18:23:14.343Z,11.90
2023-11-08T18:25:42.794Z,11.90
2023-11-08T18:28:10.266Z,11.90
2023-11-08T18:30:37.716Z,11.90
2023-11-08T18:33:05.623Z,11.90
2023-11-08T18:35:36.936Z,11.90
2023-11-08T18:38:07.019Z,11.90
2023-11-08T18:40:34.897Z,11.90
2023-11-08T18:43:02.568Z,11.90
2023-11-08T18:45:30.851Z,11.90
2023-11-08T18:47:59.023Z,11.90
2023-11-08T18:50:26.785Z,11.90
2023-11-08T18:52:57.048Z,12.00
2023-11-08T18:55:26.700Z,12.00
2023-11-08T18:57:53.864Z,12.00
2023-11-08T19:00:20.993Z,12.00
2023-11-08T19:02:48.453Z,12.00
2023-11-08T19:05:15.800Z,12.00
2023-11-08T19:07:42.880Z,12.00
2023-11-08T19:10:10.353Z,12.00
2023-11-08T19:12:37.585Z,12.00
2023-11-08T19:15:05.227Z,12.00
2023-11-08T19:17:32.249Z,12.00
2023-11-08T19:19:59.442Z,12.00
2023-11-08T19:22:26.499Z,12.00
2023-11-08T19:24:54.704Z,12.00
2023-11-08T19:27:23.126Z,12.00
2023-11-08T19:29:50.444Z,12.00
2023-11-08T19:32:17.692Z,12.00
2023-11-08T19:34:45.030Z,12.10
2023-11-08T19:37:12.123Z,12.00
2023-11-08T19:39:41.938Z,12.10
2023-11-08T19:42:09.002Z,12.10
2023-11-08T19:44:36.110Z,12.00
2023-11-08T19:47:03.133Z,12.10
2023-11-08T19:49:30.582Z,12.00
2023-11-08T19:51:57.920Z,12.10
2023-11-08T19:54:25.869Z,12.10
2023-11-08T19:56:53.498Z,12.10
2023-11-08T19:59:20.664Z,12.10
2023-11-08T20:01:47.903Z,12.00
2023-11-08T20:04:14.990Z,12.10
2023-11-08T20:06:42.109Z,12.10
2023-11-08T20:09:09.365Z,12.10
2023-11-08T20:11:36.697Z,12.10
2023-11-08T20:14:03.971Z,12.10
2023-11-08T20:16:31.217Z,12.10
2023-11-08T20:18:58.501Z,12.00
2023-11-08T20:21:25.722Z,12.10
2023-11-08T20:23:53.814Z,12.10
2023-11-08T20:26:21.017Z,12.10
2023-11-08T20:28:50.553Z,12.10
2023-11-08T20:31:17.990Z,12.10
2023-11-08T20:33:45.440Z,12.10
2023-11-08T20:36:13.097Z,12.10
2023-11-08T20:38:41.849Z,12.10
2023-11-08T20:41:17.293Z,12.10
2023-11-08T20:43:46.467Z,12.10
2023-11-08T20:46:14.554Z,12.10
2023-11-08T20:48:41.716Z,12.10
2023-11-08T20:51:16.213Z,12.10
2023-11-08T20:53:43.519Z,12.10
2023-11-08T20:56:11.467Z,12.10
2023-11-08T20:58:42.731Z,12.10
2023-11-08T21:01:10.036Z,12.10
2023-11-08T21:03:37.284Z,12.10
2023-11-08T21:06:04.697Z,12.10
2023-11-08T21:08:31.953Z,12.10
2023-11-08T21:10:59.211Z,12.10
2023-11-08T21:13:26.242Z,12.10
2023-11-08T21:15:53.765Z,12.10
2023-11-08T21:18:22.741Z,12.10
2023-11-08T21:20:51.332Z,12.10
2023-11-08T21:24:02.605Z,12.10
2023-11-08T21:26:29.738Z,12.20
2023-11-08T21:28:57.328Z,12.20
2023-11-08T21:31:24.748Z,12.10
2023-11-08T21:33:52.217Z,12.10
2023-11-08T21:36:19.540Z,12.10
2023-11-08T21:38:46.759Z,12.10
2023-11-08T21:41:13.996Z,12.20
2023-11-08T21:43:42.035Z,12.10
2023-11-08T21:46:10.255Z,12.10
2023-11-08T21:48:37.628Z,12.10
2023-11-08T21:51:04.805Z,12.10
2023-11-08T21:53:33.443Z,12.10
2023-11-08T21:56:01.523Z,12.10
2023-11-08T21:58:28.599Z,12.10
2023-11-08T22:00:56.137Z,12.10
2023-11-08T22:03:23.856Z,12.10
2023-11-08T22:05:51.670Z,12.10
2023-11-08T22:08:19.300Z,12.10
2023-11-08T22:10:48.155Z,12.10
2023-11-08T22:13:15.997Z,12.10
2023-11-08T22:15:43.206Z,12.10
2023-11-08T22:18:10.669Z,12.10
2023-11-08T22:20:38.044Z,12.10
2023-11-08T22:23:08.557Z,12.10
2023-11-08T22:25:36.464Z,12.10
2023-11-08T22:28:03.540Z,12.10
2023-11-08T22:30:33.101Z,12.10
2023-11-08T22:33:00.371Z,12.10
2023-11-08T22:35:27.551Z,12.10
2023-11-08T22:37:54.884Z,12.10
2023-11-08T22:40:22.021Z,12.10
2023-11-08T22:42:49.172Z,12.10
2023-11-08T22:45:17.172Z,12.10
2023-11-08T22:47:44.786Z,12.10
2023-11-08T22:50:12.284Z,12.10
2023-11-08T22:52:40.135Z,12.20
2023-11-08T22:55:08.103Z,12.10
2023-11-08T22:57:35.399Z,12.10
2023-11-08T23:00:02.548Z,12.10
2023-11-08T23:02:31.701Z,12.10
2023-11-08T23:04:59.507Z,12.10
2023-11-08T23:07:27.046Z,12.10
2023-11-08T23:09:54.885Z,12.10
2023-11-08T23:12:23.130Z,12.20
2023-11-08T23:14:52.753Z,12.10
2023-11-08T23:17:22.991Z,12.10
2023-11-08T23:19:50.165Z,12.10
2023-11-08T23:22:17.373Z,12.10
2023-11-08T23:24:44.648Z,12.10
2023-11-08T23:27:11.804Z,12.10
2023-11-08T23:29:39.134Z,12.10
2023-11-08T23:32:10.268Z,12.20
2023-11-08T23:34:37.313Z,12.20
2023-11-08T23:37:04.608Z,12.10
2023-11-08T23:39:31.900Z,12.10
2023-11-08T23:41:58.985Z,12.10
2023-11-08T23:44:28.592Z,12.10
2023-11-08T23:46:57.048Z,12.10
2023-11-08T23:49:24.490Z,12.10
2023-11-08T23:51:51.685Z,12.20
2023-11-08T23:54:18.747Z,12.20
2023-11-08T23:56:45.784Z,12.10
2023-11-08T23:59:18.981Z,12.20
